Time,TemperatureF,DewpointF,PressureIn,WindDirection,WindDirectionDegrees,WindSpeedMPH,WindSpeedGustMPH,Humidity,HourlyPrecipIn,Conditions,Clouds,dailyrainin,SolarRadiationWatts/m^2,SoftwareType,DateUTC
2013-12-14 00:01:00,52.0,50.5,30.14,NNE,19,1.0,2.0,95,0.00,,,0.00,0.0,meteohub,2013-12-14 05:01:00,
2013-12-14 00:02:00,52.0,50.5,30.14,NNE,19,0.0,2.0,95,0.00,,,0.00,0.0,meteohub,2013-12-14 05:02:00,
2013-12-14 00:03:00,52.0,50.5,30.14,NNE,19,0.0,2.0,95,0.00,,,0.00,0.0,meteohub,2013-12-14 05:03:00,
2013-12-14 00:08:00,52.2,50.7,30.15,NNE,19,0.0,3.0,95,0.00,,,0.00,0.0,meteohub,2013-12-14 05:08:00,
2013-12-14 00:13:00,52.2,50.5,30.15,NNE,19,0.0,3.0,94,0.00,,,0.00,0.0,meteohub,2013-12-14 05:13:00,
2013-12-14 00:19:00,52.2,50.5,30.15,NNE,19,0.0,3.0,94,0.00,,,0.00,0.0,meteohub,2013-12-14 05:19:00,
2013-12-14 00:24:00,52.3,50.9,30.15,NNE,19,0.0,2.0,95,0.00,,,0.00,0.0,meteohub,2013-12-14 05:24:00,
2013-12-14 00:29:00,52.3,50.9,30.15,NNE,19,0.0,1.0,95,0.00,,,0.00,0.0,meteohub,2013-12-14 05:29:00,
2013-12-14 00:34:00,52.3,50.7,30.15,NNE,19,0.0,1.0,94,0.00,,,0.00,0.0,meteohub,2013-12-14 05:34:00,
2013-12-14 00:39:00,52.3,50.7,30.15,NNE,19,0.0,0.0,94,0.00,,,0.00,0.0,meteohub,2013-12-14 05:39:00,
2013-12-14 00:44:00,52.5,50.9,30.15,NNE,19,0.0,0.0,94,0.00,,,0.00,0.0,meteohub,2013-12-14 05:44:00,
2013-12-14 00:49:00,52.5,50.9,30.15,NNE,19,0.0,1.0,94,0.00,,,0.00,0.0,meteohub,2013-12-14 05:49:00,
2013-12-14 00:54:00,52.3,50.7,30.15,NNE,19,0.0,1.0,94,0.00,,,0.00,0.0,meteohub,2013-12-14 05:54:00,
2013-12-14 00:59:00,52.3,50.7,30.14,NNE,19,0.0,1.0,94,0.00,,,0.00,0.0,meteohub,2013-12-14 05:59:00,
2013-12-14 01:04:00,52.3,50.7,30.14,NNE,19,0.0,0.0,94,0.00,,,0.00,0.0,meteohub,2013-12-14 06:04:00,
2013-12-14 01:09:00,52.3,50.7,30.14,NNE,19,0.0,0.0,94,0.00,,,0.00,0.0,meteohub,2013-12-14 06:09:00,
2013-12-14 01:14:00,52.2,50.5,30.14,NNE,19,0.0,0.0,94,0.00,,,0.00,0.0,meteohub,2013-12-14 06:14:00,
2013-12-14 01:19:00,52.2,50.5,30.14,NNE,19,0.0,1.0,94,0.00,,,0.00,0.0,meteohub,2013-12-14 06:19:00,
2013-12-14 01:24:00,52.2,50.5,30.13,NNE,19,0.0,1.0,94,0.00,,,0.00,0.0,meteohub,2013-12-14 06:24:00,
2013-12-14 01:29:00,52.0,50.4,30.13,NNE,18,0.0,1.0,94,0.00,,,0.00,0.0,meteohub,2013-12-14 06:29:00,
2013-12-14 01:34:00,51.6,50.0,30.12,NNE,19,0.0,0.0,94,0.00,,,0.00,0.0,meteohub,2013-12-14 06:34:00,
2013-12-14 01:39:00,51.4,49.8,30.12,NNE,19,0.0,1.0,94,0.00,,,0.00,0.0,meteohub,2013-12-14 06:39:00,
2013-12-14 01:44:00,51.3,49.6,30.12,NNE,19,0.0,1.0,94,0.00,,,0.00,0.0,meteohub,2013-12-14 06:44:00,
2013-12-14 01:49:00,51.1,49.6,30.12,NNE,19,0.0,1.0,95,0.00,,,0.00,0.0,meteohub,2013-12-14 06:49:00,
2013-12-14 01:54:00,51.1,49.6,30.12,NNE,19,0.0,0.0,95,0.00,,,0.00,0.0,meteohub,2013-12-14 06:54:00,
2013-12-14 01:59:00,51.1,49.6,30.12,NNE,18,0.0,0.0,95,0.00,,,0.00,0.0,meteohub,2013-12-14 06:59:00,
2013-12-14 02:04:00,50.9,49.5,30.12,NNE,19,0.0,0.0,95,0.00,,,0.00,0.0,meteohub,2013-12-14 07:04:00,
2013-12-14 02:09:00,50.7,49.3,30.12,NNE,19,0.0,0.0,95,0.00,,,0.00,0.0,meteohub,2013-12-14 07:09:00,
2013-12-14 02:14:00,50.7,49.3,30.12,NNE,19,0.0,0.0,95,0.00,,,0.00,0.0,meteohub,2013-12-14 07:14:00,
2013-12-14 02:19:00,50.5,49.1,30.12,NNE,19,0.0,0.0,95,0.00,,,0.00,0.0,meteohub,2013-12-14 07:19:00,
2013-12-14 02:24:00,50.5,49.1,30.12,NNE,19,0.0,0.0,95,0.00,,,0.00,0.0,meteohub,2013-12-14 07:24:00,
2013-12-14 02:29:00,50.7,49.3,30.12,NNE,18,0.0,0.0,95,0.00,,,0.00,0.0,meteohub,2013-12-14 07:29:00,
2013-12-14 02:34:00,50.7,49.3,30.12,NNE,19,0.0,0.0,95,0.00,,,0.00,0.0,meteohub,2013-12-14 07:34:00,
2013-12-14 02:39:00,50.5,49.1,30.12,NNE,19,0.0,0.0,95,0.00,,,0.00,0.0,meteohub,2013-12-14 07:39:00,
2013-12-14 02:44:00,50.7,49.3,30.11,NNE,19,0.0,0.0,95,0.00,,,0.00,0.0,meteohub,2013-12-14 07:44:00,
2013-12-14 02:49:00,50.5,49.1,30.11,NNE,18,0.0,0.0,95,0.00,,,0.00,0.0,meteohub,2013-12-14 07:49:00,
2013-12-14 02:54:00,50.5,49.1,30.12,NNE,18,0.0,0.0,95,0.00,,,0.00,0.0,meteohub,2013-12-14 07:54:00,
2013-12-14 02:59:00,50.5,49.5,30.12,NNE,19,0.0,0.0,96,0.00,,,0.00,0.0,meteohub,2013-12-14 07:59:00,
2013-12-14 03:04:00,50.5,49.5,30.11,NNE,19,0.0,0.0,96,0.00,,,0.00,0.0,meteohub,2013-12-14 08:04:00,
2013-12-14 03:09:00,50.5,49.5,30.11,NNE,18,0.0,0.0,96,0.00,,,0.00,0.0,meteohub,2013-12-14 08:09:00,
2013-12-14 03:14:00,50.5,49.5,30.11,NNE,19,0.0,0.0,96,0.00,,,0.00,0.0,meteohub,2013-12-14 08:14:00,
2013-12-14 03:20:00,50.5,49.5,30.11,NNE,19,0.0,0.0,96,0.00,,,0.00,0.0,meteohub,2013-12-14 08:20:00,
2013-12-14 03:24:00,50.5,49.5,30.11,NNE,19,0.0,0.0,96,0.00,,,0.00,0.0,meteohub,2013-12-14 08:24:00,
2013-12-14 03:29:00,50.5,49.5,30.11,NNE,19,0.0,0.0,96,0.00,,,0.00,0.0,meteohub,2013-12-14 08:29:00,
2013-12-14 03:34:00,50.5,49.5,30.10,NNE,19,0.0,0.0,96,0.00,,,0.00,0.0,meteohub,2013-12-14 08:34:00,
2013-12-14 03:39:00,50.5,49.5,30.10,NNE,19,0.0,0.0,96,0.00,,,0.00,0.0,meteohub,2013-12-14 08:39:00,
2013-12-14 03:45:00,50.4,49.3,30.10,NNE,19,0.0,0.0,96,0.00,,,0.00,0.0,meteohub,2013-12-14 08:45:00,
2013-12-14 03:50:00,50.5,49.5,30.10,NNE,19,0.0,0.0,96,0.00,,,0.00,0.0,meteohub,2013-12-14 08:50:00,
2013-12-14 03:55:00,50.5,49.5,30.10,NNE,19,0.0,0.0,96,0.00,,,0.00,0.0,meteohub,2013-12-14 08:55:00,
2013-12-14 04:00:00,50.5,49.5,30.10,NNE,19,0.0,0.0,96,0.00,,,0.00,0.0,meteohub,2013-12-14 09:00:00,
2013-12-14 04:05:00,50.5,49.5,30.10,NNE,19,0.0,0.0,96,0.00,,,0.00,0.0,meteohub,2013-12-14 09:05:00,
2013-12-14 04:10:00,50.7,49.6,30.09,NNE,18,0.0,0.0,96,0.00,,,0.00,0.0,meteohub,2013-12-14 09:10:00,
2013-12-14 04:15:00,50.7,49.6,30.09,NNE,19,0.0,0.0,96,0.00,,,0.00,0.0,meteohub,2013-12-14 09:15:00,
2013-12-14 04:20:00,50.7,49.6,30.09,NNE,19,0.0,0.0,96,0.00,,,0.00,0.0,meteohub,2013-12-14 09:20:00,
2013-12-14 04:25:00,50.7,49.6,30.09,NNE,18,0.0,0.0,96,0.00,,,0.00,0.0,meteohub,2013-12-14 09:25:00,
2013-12-14 04:30:00,50.9,49.8,30.08,NNE,19,0.0,0.0,96,0.00,,,0.00,0.0,meteohub,2013-12-14 09:30:00,
2013-12-14 04:35:00,51.1,50.0,30.07,NNE,18,0.0,0.0,96,0.00,,,0.00,0.0,meteohub,2013-12-14 09:35:00,
2013-12-14 04:40:00,51.1,50.0,30.08,NNE,19,0.0,0.0,96,0.00,,,0.00,0.0,meteohub,2013-12-14 09:40:00,
2013-12-14 04:45:00,51.4,50.4,30.08,NNE,18,0.0,0.0,96,0.00,,,0.00,0.0,meteohub,2013-12-14 09:45:00,
2013-12-14 04:50:00,51.6,50.5,30.07,NNE,18,0.0,0.0,96,0.00,,,0.00,0.0,meteohub,2013-12-14 09:50:00,
2013-12-14 04:55:00,51.6,50.5,30.08,NNE,19,0.0,0.0,96,0.00,,,0.00,0.0,meteohub,2013-12-14 09:55:00,
2013-12-14 05:00:00,51.6,50.5,30.08,NNE,19,0.0,0.0,96,0.00,,,0.00,0.0,meteohub,2013-12-14 10:00:00,
2013-12-14 05:05:00,52.0,51.1,30.07,NNE,19,0.0,0.0,97,0.00,,,0.00,0.0,meteohub,2013-12-14 10:05:00,
2013-12-14 05:10:00,51.8,50.9,30.08,NNE,19,0.0,0.0,97,0.00,,,0.00,0.0,meteohub,2013-12-14 10:10:00,
2013-12-14 05:15:00,52.0,51.1,30.08,NNE,19,0.0,0.0,97,0.00,,,0.00,0.0,meteohub,2013-12-14 10:15:00,
2013-12-14 05:20:00,52.0,51.1,30.07,NNE,19,0.0,0.0,97,0.00,,,0.00,0.0,meteohub,2013-12-14 10:20:00,
2013-12-14 05:25:00,51.8,50.9,30.08,NNE,19,0.0,0.0,97,0.00,,,0.00,0.0,meteohub,2013-12-14 10:25:00,
2013-12-14 05:30:00,51.8,50.7,30.08,NNE,18,0.0,0.0,96,0.00,,,0.00,0.0,meteohub,2013-12-14 10:30:00,
2013-12-14 05:35:00,52.0,51.1,30.08,NNE,18,0.0,0.0,97,0.00,,,0.00,0.0,meteohub,2013-12-14 10:35:00,
2013-12-14 05:40:00,52.0,51.1,30.08,NNE,19,0.0,0.0,97,0.00,,,0.00,0.0,meteohub,2013-12-14 10:40:00,
2013-12-14 05:45:00,52.0,51.1,30.08,NNE,19,0.0,0.0,97,0.00,,,0.00,0.0,meteohub,2013-12-14 10:45:00,
2013-12-14 05:50:00,52.0,51.1,30.08,NNE,18,0.0,0.0,97,0.00,,,0.00,0.0,meteohub,2013-12-14 10:50:00,
2013-12-14 05:55:00,52.0,51.1,30.08,NNE,19,0.0,0.0,97,0.00,,,0.00,0.0,meteohub,2013-12-14 10:55:00,
2013-12-14 06:00:00,52.0,51.1,30.08,NNE,19,0.0,0.0,97,0.00,,,0.00,0.0,meteohub,2013-12-14 11:00:00,
2013-12-14 06:05:00,52.0,51.1,30.08,NNE,18,0.0,0.0,97,0.00,,,0.00,0.0,meteohub,2013-12-14 11:05:00,
2013-12-14 06:10:00,52.2,51.3,30.08,NNE,19,0.0,0.0,97,0.00,,,0.00,0.0,meteohub,2013-12-14 11:10:00,
2013-12-14 06:15:00,52.3,51.4,30.08,NNE,18,0.0,0.0,97,0.00,,,0.00,0.0,meteohub,2013-12-14 11:15:00,
2013-12-14 06:21:00,52.3,51.4,30.09,NNE,18,0.0,0.0,97,0.00,,,0.00,0.0,meteohub,2013-12-14 11:21:00,
2013-12-14 06:26:00,52.3,51.4,30.08,NNE,18,0.0,0.0,97,0.00,,,0.00,0.0,meteohub,2013-12-14 11:26:00,
2013-12-14 06:30:00,52.3,51.4,30.08,NNE,18,0.0,0.0,97,0.00,,,0.00,0.0,meteohub,2013-12-14 11:30:00,
2013-12-14 06:35:00,52.3,51.4,30.08,NNE,19,0.0,0.0,97,0.00,,,0.00,0.0,meteohub,2013-12-14 11:35:00,
2013-12-14 06:40:00,52.3,51.4,30.08,NNE,19,0.0,0.0,97,0.00,,,0.00,0.0,meteohub,2013-12-14 11:40:00,
2013-12-14 06:45:00,52.3,51.4,30.08,NNE,19,0.0,0.0,97,0.00,,,0.00,0.0,meteohub,2013-12-14 11:45:00,
2013-12-14 06:50:00,52.3,51.4,30.08,NNE,18,0.0,0.0,97,0.00,,,0.00,0.0,meteohub,2013-12-14 11:50:00,
2013-12-14 06:55:00,52.5,51.6,30.08,NNE,19,0.0,0.0,97,0.00,,,0.00,0.0,meteohub,2013-12-14 11:55:00,
2013-12-14 07:01:00,52.5,51.6,30.08,NNE,19,0.0,0.0,97,0.00,,,0.00,0.0,meteohub,2013-12-14 12:01:00,
2013-12-14 07:06:00,52.9,52.0,30.08,NNE,19,0.0,0.0,97,0.00,,,0.00,0.0,meteohub,2013-12-14 12:06:00,
2013-12-14 07:11:00,52.9,52.0,30.09,NNE,19,0.0,0.0,97,0.00,,,0.00,0.0,meteohub,2013-12-14 12:11:00,
2013-12-14 07:16:00,53.1,52.2,30.09,NNE,19,0.0,0.0,97,0.00,,,0.00,0.0,meteohub,2013-12-14 12:16:00,
2013-12-14 07:21:00,53.1,52.2,30.08,NNE,19,0.0,0.0,97,0.00,,,0.00,0.0,meteohub,2013-12-14 12:21:00,
2013-12-14 07:26:00,53.2,52.3,30.08,NNE,19,0.0,0.0,97,0.00,,,0.00,0.0,meteohub,2013-12-14 12:26:00,
2013-12-14 07:31:00,53.2,52.3,30.08,NNE,19,0.0,0.0,97,0.00,,,0.00,0.0,meteohub,2013-12-14 12:31:00,
2013-12-14 07:36:00,53.4,52.5,30.09,NNE,19,0.0,0.0,97,0.00,,,0.00,5.0,meteohub,2013-12-14 12:36:00,
2013-12-14 07:41:00,53.6,52.7,30.09,NNE,19,0.0,0.0,97,0.00,,,0.00,9.0,meteohub,2013-12-14 12:41:00,
2013-12-14 07:46:00,53.8,52.9,30.09,NNE,19,0.0,0.0,97,0.00,,,0.00,12.0,meteohub,2013-12-14 12:46:00,
2013-12-14 07:51:00,53.8,52.9,30.09,NNE,19,0.0,0.0,97,0.00,,,0.00,18.0,meteohub,2013-12-14 12:51:00,
2013-12-14 07:56:00,54.0,53.1,30.09,NNE,19,0.0,0.0,97,0.00,,,0.00,21.0,meteohub,2013-12-14 12:56:00,
2013-12-14 08:01:00,54.0,53.1,30.09,NNE,18,0.0,0.0,97,0.00,,,0.00,25.0,meteohub,2013-12-14 13:01:00,
2013-12-14 08:06:00,54.3,53.4,30.08,NNE,19,0.0,0.0,97,0.00,,,0.00,28.0,meteohub,2013-12-14 13:06:00,
2013-12-14 08:11:00,54.7,53.8,30.09,NNE,19,0.0,0.0,97,0.00,,,0.00,40.0,meteohub,2013-12-14 13:11:00,
2013-12-14 08:16:00,55.2,54.3,30.08,NNE,19,0.0,0.0,97,0.00,,,0.00,40.0,meteohub,2013-12-14 13:16:00,
2013-12-14 08:21:00,55.9,55.0,30.09,NNE,19,0.0,0.0,97,0.00,,,0.00,40.0,meteohub,2013-12-14 13:21:00,
2013-12-14 08:26:00,56.5,55.6,30.09,NNE,19,0.0,0.0,97,0.00,,,0.00,30.0,meteohub,2013-12-14 13:26:00,
2013-12-14 08:31:00,57.0,56.1,30.08,NNE,19,0.0,0.0,97,0.00,,,0.00,30.0,meteohub,2013-12-14 13:31:00,
2013-12-14 08:36:00,57.9,57.4,30.08,NNE,19,0.0,0.0,98,0.00,,,0.00,49.0,meteohub,2013-12-14 13:36:00,
2013-12-14 08:41:00,59.0,58.5,30.07,ENE,67,0.0,1.0,98,0.00,,,0.00,63.0,meteohub,2013-12-14 13:41:00,
2013-12-14 08:46:00,60.1,59.5,30.06,SSE,147,0.0,4.0,98,0.00,,,0.00,79.0,meteohub,2013-12-14 13:46:00,
2013-12-14 08:51:00,61.2,60.6,30.06,SE,134,0.0,4.0,98,0.00,,,0.00,98.0,meteohub,2013-12-14 13:51:00,
2013-12-14 08:56:00,62.1,61.5,30.06,South,170,0.0,6.0,98,0.00,,,0.00,116.0,meteohub,2013-12-14 13:56:00,
2013-12-14 09:01:00,62.8,62.2,30.07,South,170,0.0,6.0,98,0.00,,,0.00,146.0,meteohub,2013-12-14 14:01:00,
2013-12-14 09:06:00,63.9,63.0,30.07,SSE,151,1.0,4.0,97,0.00,,,0.00,130.0,meteohub,2013-12-14 14:06:00,
2013-12-14 09:11:00,64.6,63.1,30.07,SSE,163,2.0,4.0,95,0.00,,,0.00,156.0,meteohub,2013-12-14 14:11:00,
2013-12-14 09:16:00,65.1,63.3,30.06,ESE,113,1.0,4.0,94,0.00,,,0.00,171.0,meteohub,2013-12-14 14:16:00,
2013-12-14 09:21:00,65.8,63.5,30.06,SSE,159,0.0,4.0,92,0.00,,,0.00,169.0,meteohub,2013-12-14 14:21:00,
2013-12-14 09:26:00,66.6,63.9,30.06,SSE,165,0.0,4.0,91,0.00,,,0.00,318.0,meteohub,2013-12-14 14:26:00,
2013-12-14 09:31:00,67.3,63.9,30.05,SE,141,4.0,4.0,89,0.00,,,0.00,195.0,meteohub,2013-12-14 14:31:00,
2013-12-14 09:36:00,67.6,64.0,30.06,SE,138,0.0,9.0,88,0.00,,,0.00,149.0,meteohub,2013-12-14 14:36:00,
2013-12-14 09:41:00,67.8,63.9,30.06,SE,125,0.0,9.0,87,0.00,,,0.00,146.0,meteohub,2013-12-14 14:41:00,
2013-12-14 09:46:00,68.0,64.0,30.06,SW,222,3.0,9.0,87,0.00,,,0.00,77.0,meteohub,2013-12-14 14:46:00,
2013-12-14 09:51:00,68.2,63.9,30.06,SSW,209,4.0,10.0,86,0.00,,,0.00,98.0,meteohub,2013-12-14 14:51:00,
2013-12-14 09:56:00,68.2,63.9,30.06,ESE,123,4.0,10.0,86,0.00,,,0.00,153.0,meteohub,2013-12-14 14:56:00,
2013-12-14 10:01:00,68.0,63.7,30.06,South,184,0.0,10.0,86,0.00,,,0.00,98.0,meteohub,2013-12-14 15:01:00,
2013-12-14 10:06:00,68.0,63.7,30.06,SE,146,2.0,7.0,86,0.00,,,0.00,111.0,meteohub,2013-12-14 15:06:00,
2013-12-14 10:11:00,68.0,63.7,30.04,South,179,0.0,7.0,86,0.00,,,0.00,125.0,meteohub,2013-12-14 15:11:00,
2013-12-14 10:16:00,68.0,63.7,30.04,SSE,164,1.0,5.0,86,0.00,,,0.00,146.0,meteohub,2013-12-14 15:16:00,
2013-12-14 10:21:00,68.0,63.7,30.04,South,175,0.0,7.0,86,0.00,,,0.00,135.0,meteohub,2013-12-14 15:21:00,
2013-12-14 10:26:00,68.2,63.9,30.04,SSE,153,1.0,7.0,86,0.00,,,0.00,139.0,meteohub,2013-12-14 15:26:00,
2013-12-14 10:31:00,68.4,63.7,30.04,SSW,203,3.0,7.0,85,0.00,,,0.00,274.0,meteohub,2013-12-14 15:31:00,
2013-12-14 10:36:00,68.7,64.0,30.04,SE,136,0.0,7.0,85,0.00,,,0.00,155.0,meteohub,2013-12-14 15:36:00,
2013-12-14 10:41:00,69.1,64.4,30.03,SSE,148,0.0,6.0,85,0.00,,,0.00,116.0,meteohub,2013-12-14 15:41:00,
2013-12-14 10:46:00,69.3,64.6,30.03,South,178,0.0,7.0,85,0.00,,,0.00,105.0,meteohub,2013-12-14 15:46:00,
2013-12-14 10:51:00,69.3,64.2,30.02,SSE,157,1.0,9.0,84,0.00,,,0.00,46.0,meteohub,2013-12-14 15:51:00,
2013-12-14 10:56:00,69.3,64.6,30.02,SE,134,1.0,9.0,85,0.00,,,0.00,35.0,meteohub,2013-12-14 15:56:00,
2013-12-14 11:01:00,69.1,64.8,30.01,SSE,167,3.0,7.0,86,0.00,,,0.00,21.0,meteohub,2013-12-14 16:01:00,
2013-12-14 11:06:00,68.5,64.6,30.02,SW,216,1.0,7.0,87,0.01,,,0.01,12.0,meteohub,2013-12-14 16:06:00,
2013-12-14 11:11:00,68.0,64.6,30.02,South,189,2.0,7.0,89,0.01,,,0.01,5.0,meteohub,2013-12-14 16:11:00,
2013-12-14 11:16:00,67.5,64.4,30.02,SW,234,2.0,8.0,90,0.03,,,0.03,7.0,meteohub,2013-12-14 16:16:00,
2013-12-14 11:21:00,66.9,64.2,30.01,SE,132,1.0,8.0,91,0.05,,,0.05,12.0,meteohub,2013-12-14 16:21:00,
2013-12-14 11:26:00,66.4,64.2,30.00,ESE,123,0.0,7.0,93,0.08,,,0.08,23.0,meteohub,2013-12-14 16:26:00,
2013-12-14 11:31:00,66.2,64.0,30.00,SSW,200,5.0,7.0,93,0.10,,,0.10,121.0,meteohub,2013-12-14 16:31:00,
2013-12-14 11:36:00,66.4,64.6,29.99,SSE,153,4.0,5.0,94,0.10,,,0.10,120.0,meteohub,2013-12-14 16:36:00,
2013-12-14 11:41:00,66.6,64.8,29.99,SSE,165,1.0,5.0,94,0.10,,,0.10,592.0,meteohub,2013-12-14 16:41:00,
2013-12-14 11:46:00,66.9,65.5,29.99,South,179,3.0,7.0,95,0.11,,,0.11,353.0,meteohub,2013-12-14 16:46:00,
2013-12-14 11:51:00,67.5,66.0,29.99,SSE,149,0.0,9.0,95,0.11,,,0.11,171.0,meteohub,2013-12-14 16:51:00,
2013-12-14 11:56:00,67.6,66.2,29.99,SSW,194,3.0,9.0,95,0.11,,,0.11,366.0,meteohub,2013-12-14 16:56:00,
2013-12-14 12:01:00,68.5,67.1,29.98,SE,126,6.0,9.0,95,0.11,,,0.11,643.0,meteohub,2013-12-14 17:01:00,
2013-12-14 12:06:00,68.9,67.1,29.97,South,182,0.0,10.0,94,0.10,,,0.11,290.0,meteohub,2013-12-14 17:06:00,
2013-12-14 12:11:00,69.1,67.3,29.96,SW,226,7.0,12.0,94,0.10,,,0.11,156.0,meteohub,2013-12-14 17:11:00,
2013-12-14 12:16:00,68.7,66.6,29.96,SW,215,0.0,12.0,93,0.08,,,0.11,51.0,meteohub,2013-12-14 17:16:00,
2013-12-14 12:21:00,68.4,66.2,29.96,SE,139,2.0,12.0,93,0.08,,,0.13,204.0,meteohub,2013-12-14 17:21:00,
2013-12-14 12:26:00,68.2,66.4,29.96,SSE,159,0.0,10.0,94,0.03,,,0.13,181.0,meteohub,2013-12-14 17:26:00,
2013-12-14 12:31:00,68.4,66.6,29.95,SSW,196,6.0,12.0,94,0.03,,,0.13,274.0,meteohub,2013-12-14 17:31:00,
2013-12-14 12:36:00,68.5,66.7,29.95,SE,143,7.0,12.0,94,0.03,,,0.13,617.0,meteohub,2013-12-14 17:36:00,
2013-12-14 12:41:00,69.3,67.8,29.94,SSE,167,7.0,12.0,95,0.02,,,0.13,571.0,meteohub,2013-12-14 17:41:00,
2013-12-14 12:46:00,69.8,68.0,29.94,South,188,2.0,12.0,94,0.02,,,0.13,527.0,meteohub,2013-12-14 17:46:00,
2013-12-14 12:51:00,70.3,68.2,29.93,ESE,118,5.0,12.0,93,0.02,,,0.13,510.0,meteohub,2013-12-14 17:51:00,
2013-12-14 12:56:00,70.9,68.4,29.93,SSE,163,5.0,10.0,92,0.02,,,0.13,520.0,meteohub,2013-12-14 17:56:00,
2013-12-14 13:01:00,71.2,68.5,29.93,WSW,241,5.0,19.0,91,0.02,,,0.13,499.0,meteohub,2013-12-14 18:01:00,
2013-12-14 13:06:00,71.6,68.5,29.93,SSE,160,4.0,19.0,90,0.02,,,0.13,492.0,meteohub,2013-12-14 18:06:00,
2013-12-14 13:11:00,72.0,68.9,29.93,South,172,3.0,19.0,90,0.02,,,0.13,492.0,meteohub,2013-12-14 18:11:00,
2013-12-14 13:16:00,72.3,68.9,29.93,SSW,207,2.0,15.0,89,0.02,,,0.13,272.0,meteohub,2013-12-14 18:16:00,
2013-12-14 13:21:00,72.5,68.7,29.92,SSE,167,4.0,11.0,88,0.00,,,0.13,200.0,meteohub,2013-12-14 18:21:00,
2013-12-14 13:26:00,72.7,68.9,29.92,SSE,159,10.0,11.0,88,0.00,,,0.13,257.0,meteohub,2013-12-14 18:26:00,
2013-12-14 13:31:00,72.7,68.5,29.92,SW,225,9.0,12.0,87,0.00,,,0.13,272.0,meteohub,2013-12-14 18:31:00,
2013-12-14 13:36:00,72.7,68.5,29.91,SE,141,5.0,14.0,87,0.00,,,0.13,197.0,meteohub,2013-12-14 18:36:00,
2013-12-14 13:41:00,72.9,68.7,29.91,SW,214,4.0,14.0,87,0.00,,,0.13,295.0,meteohub,2013-12-14 18:41:00,
2013-12-14 13:46:00,73.0,68.5,29.91,SSW,196,4.0,14.0,86,0.00,,,0.13,545.0,meteohub,2013-12-14 18:46:00,
2013-12-14 13:51:00,73.6,69.1,29.91,SSE,164,2.0,13.0,86,0.00,,,0.13,287.0,meteohub,2013-12-14 18:51:00,
2013-12-14 13:56:00,73.6,68.7,29.91,SSE,157,4.0,8.0,85,0.00,,,0.13,125.0,meteohub,2013-12-14 18:56:00,
2013-12-14 14:01:00,73.0,68.2,29.91,SSE,156,5.0,8.0,85,0.00,,,0.13,109.0,meteohub,2013-12-14 19:01:00,
2013-12-14 14:07:00,72.7,68.2,29.91,SSE,165,0.0,8.0,86,0.00,,,0.13,123.0,meteohub,2013-12-14 19:07:00,
2013-12-14 14:12:00,72.3,67.8,29.91,SE,145,0.0,8.0,86,0.00,,,0.13,174.0,meteohub,2013-12-14 19:12:00,
2013-12-14 14:17:00,72.1,67.6,29.90,SSW,192,3.0,8.0,86,0.00,,,0.13,137.0,meteohub,2013-12-14 19:17:00,
2013-12-14 14:22:00,72.0,67.5,29.90,SSW,196,2.0,10.0,86,0.00,,,0.13,111.0,meteohub,2013-12-14 19:22:00,
2013-12-14 14:27:00,71.8,67.6,29.90,SSE,163,7.0,10.0,87,0.00,,,0.13,141.0,meteohub,2013-12-14 19:27:00,
2013-12-14 14:32:00,71.8,67.6,29.90,South,186,0.0,10.0,87,0.00,,,0.13,179.0,meteohub,2013-12-14 19:32:00,
2013-12-14 14:37:00,71.8,67.6,29.89,SE,140,3.0,7.0,87,0.00,,,0.13,113.0,meteohub,2013-12-14 19:37:00,
2013-12-14 14:42:00,71.6,67.5,29.89,South,176,4.0,7.0,87,0.00,,,0.13,183.0,meteohub,2013-12-14 19:42:00,
2013-12-14 14:47:00,71.8,67.6,29.89,SSW,192,3.0,7.0,87,0.00,,,0.13,148.0,meteohub,2013-12-14 19:47:00,
2013-12-14 14:52:00,72.0,67.8,29.89,SSE,153,1.0,10.0,87,0.00,,,0.13,128.0,meteohub,2013-12-14 19:52:00,
2013-12-14 14:56:00,72.0,67.5,29.88,SSE,156,6.0,10.0,86,0.00,,,0.13,128.0,meteohub,2013-12-14 19:56:00,
2013-12-14 15:02:00,72.0,67.5,29.88,SE,146,6.0,10.0,86,0.00,,,0.13,81.0,meteohub,2013-12-14 20:02:00,
2013-12-14 15:06:00,72.0,67.5,29.88,SSE,157,3.0,9.0,86,0.00,,,0.13,142.0,meteohub,2013-12-14 20:06:00,
2013-12-14 15:12:00,72.0,67.5,29.88,SSE,159,3.0,9.0,86,0.00,,,0.13,137.0,meteohub,2013-12-14 20:12:00,
2013-12-14 15:17:00,72.0,67.5,29.88,SSE,162,2.0,8.0,86,0.00,,,0.13,83.0,meteohub,2013-12-14 20:17:00,
2013-12-14 15:22:00,72.0,67.5,29.88,SSE,160,3.0,9.0,86,0.00,,,0.13,81.0,meteohub,2013-12-14 20:22:00,
2013-12-14 15:26:00,72.0,67.8,29.88,South,183,0.0,9.0,87,0.00,,,0.13,83.0,meteohub,2013-12-14 20:26:00,
2013-12-14 15:31:00,72.0,67.8,29.88,ESE,114,0.0,9.0,87,0.00,,,0.13,105.0,meteohub,2013-12-14 20:31:00,
2013-12-14 15:36:00,72.0,67.5,29.87,SSE,148,0.0,8.0,86,0.00,,,0.13,98.0,meteohub,2013-12-14 20:36:00,
2013-12-14 15:41:00,72.0,67.5,29.87,SSE,156,0.0,8.0,86,0.00,,,0.13,88.0,meteohub,2013-12-14 20:41:00,
2013-12-14 15:47:00,72.0,67.5,29.88,ESE,119,0.0,10.0,86,0.00,,,0.13,65.0,meteohub,2013-12-14 20:47:00,
2013-12-14 15:52:00,72.0,67.8,29.88,SSW,202,0.0,10.0,87,0.00,,,0.13,44.0,meteohub,2013-12-14 20:52:00,
2013-12-14 15:57:00,71.8,67.6,29.88,ESE,105,0.0,8.0,87,0.00,,,0.13,56.0,meteohub,2013-12-14 20:57:00,
2013-12-14 16:01:00,71.6,67.5,29.88,South,173,1.0,8.0,87,0.00,,,0.13,42.0,meteohub,2013-12-14 21:01:00,
2013-12-14 16:06:00,71.4,67.3,29.88,SE,142,1.0,5.0,87,0.00,,,0.13,46.0,meteohub,2013-12-14 21:06:00,
2013-12-14 16:12:00,71.2,67.1,29.88,SSE,159,2.0,8.0,87,0.00,,,0.13,47.0,meteohub,2013-12-14 21:12:00,
2013-12-14 16:17:00,71.2,67.1,29.87,ESE,120,2.0,8.0,87,0.00,,,0.13,35.0,meteohub,2013-12-14 21:17:00,
2013-12-14 16:22:00,71.2,67.1,29.88,SSW,208,4.0,7.0,87,0.00,,,0.13,28.0,meteohub,2013-12-14 21:22:00,
2013-12-14 16:27:00,71.2,67.5,29.88,SSE,160,0.0,7.0,88,0.00,,,0.13,25.0,meteohub,2013-12-14 21:27:00,
2013-12-14 16:32:00,71.2,67.5,29.88,South,176,0.0,7.0,88,0.00,,,0.13,25.0,meteohub,2013-12-14 21:32:00,
2013-12-14 16:37:00,71.2,67.5,29.88,South,169,1.0,7.0,88,0.00,,,0.13,23.0,meteohub,2013-12-14 21:37:00,
2013-12-14 16:42:00,71.1,67.3,29.88,South,173,0.0,7.0,88,0.00,,,0.13,16.0,meteohub,2013-12-14 21:42:00,
2013-12-14 16:46:00,71.1,67.3,29.88,SE,137,0.0,7.0,88,0.00,,,0.13,14.0,meteohub,2013-12-14 21:46:00,
2013-12-14 16:51:00,70.9,67.1,29.88,SE,140,0.0,5.0,88,0.00,,,0.13,12.0,meteohub,2013-12-14 21:51:00,
2013-12-14 16:56:00,70.9,67.1,29.88,SSE,163,1.0,4.0,88,0.00,,,0.13,7.0,meteohub,2013-12-14 21:56:00,
2013-12-14 17:02:00,70.7,66.9,29.88,SE,137,0.0,4.0,88,0.00,,,0.13,7.0,meteohub,2013-12-14 22:02:00,
2013-12-14 17:07:00,70.5,67.1,29.88,SSE,152,0.0,4.0,89,0.00,,,0.13,0.0,meteohub,2013-12-14 22:07:00,
2013-12-14 17:12:00,70.3,66.9,29.88,South,183,1.0,7.0,89,0.00,,,0.13,0.0,meteohub,2013-12-14 22:12:00,
2013-12-14 17:17:00,70.2,66.7,29.88,SSE,153,0.0,7.0,89,0.00,,,0.13,0.0,meteohub,2013-12-14 22:17:00,
2013-12-14 17:22:00,70.0,66.6,29.88,SSE,153,0.0,7.0,89,0.00,,,0.13,0.0,meteohub,2013-12-14 22:22:00,
2013-12-14 17:27:00,69.8,66.4,29.88,South,170,0.0,4.0,89,0.00,,,0.13,0.0,meteohub,2013-12-14 22:27:00,
2013-12-14 17:32:00,69.4,66.4,29.88,SE,146,1.0,4.0,90,0.00,,,0.13,0.0,meteohub,2013-12-14 22:32:00,
2013-12-14 17:37:00,69.3,66.2,29.88,SE,144,0.0,5.0,90,0.00,,,0.13,0.0,meteohub,2013-12-14 22:37:00,
2013-12-14 17:42:00,69.1,66.4,29.87,South,170,0.0,6.0,91,0.00,,,0.13,0.0,meteohub,2013-12-14 22:42:00,
2013-12-14 17:47:00,68.7,66.0,29.87,SSE,158,0.0,6.0,91,0.00,,,0.13,0.0,meteohub,2013-12-14 22:47:00,
2013-12-14 17:52:00,68.5,66.2,29.87,SE,129,0.0,6.0,92,0.00,,,0.13,0.0,meteohub,2013-12-14 22:52:00,
2013-12-14 17:56:00,68.4,66.0,29.87,SSW,199,5.0,5.0,92,0.00,,,0.13,0.0,meteohub,2013-12-14 22:56:00,
2013-12-14 18:02:00,68.2,65.8,29.86,SSE,156,5.0,7.0,92,0.00,,,0.13,0.0,meteohub,2013-12-14 23:02:00,
2013-12-14 18:07:00,67.8,65.7,29.87,SSE,163,2.0,7.0,93,0.00,,,0.13,0.0,meteohub,2013-12-14 23:07:00,
2013-12-14 18:12:00,67.8,65.7,29.87,South,175,3.0,7.0,93,0.00,,,0.13,0.0,meteohub,2013-12-14 23:12:00,
2013-12-14 18:17:00,67.8,65.7,29.87,SE,141,1.0,11.0,93,0.00,,,0.13,0.0,meteohub,2013-12-14 23:17:00,
2013-12-14 18:22:00,67.8,65.7,29.87,South,191,0.0,11.0,93,0.00,,,0.13,0.0,meteohub,2013-12-14 23:22:00,
2013-12-14 18:27:00,67.8,66.0,29.87,SSW,209,7.0,11.0,94,0.00,,,0.13,0.0,meteohub,2013-12-14 23:27:00,
2013-12-14 18:32:00,67.8,66.0,29.87,South,186,0.0,7.0,94,0.00,,,0.13,0.0,meteohub,2013-12-14 23:32:00,
2013-12-14 18:37:00,67.8,66.0,29.87,South,186,0.0,7.0,94,0.00,,,0.13,0.0,meteohub,2013-12-14 23:37:00,
2013-12-14 18:42:00,67.8,66.0,29.87,South,176,0.0,7.0,94,0.00,,,0.13,0.0,meteohub,2013-12-14 23:42:00,
2013-12-14 18:46:00,68.0,66.2,29.87,SSE,151,1.0,5.0,94,0.00,,,0.13,0.0,meteohub,2013-12-14 23:46:00,
2013-12-14 18:51:00,68.2,66.4,29.87,SSE,148,0.0,5.0,94,0.00,,,0.13,0.0,meteohub,2013-12-14 23:51:00,
2013-12-14 18:56:00,68.4,66.6,29.87,SSE,148,0.0,5.0,94,0.00,,,0.13,0.0,meteohub,2013-12-14 23:56:00,
2013-12-14 19:02:00,68.5,66.7,29.87,SSW,211,0.0,6.0,94,0.00,,,0.13,0.0,meteohub,2013-12-15 00:02:00,
2013-12-14 19:06:00,68.5,66.7,29.87,SSW,200,1.0,6.0,94,0.00,,,0.13,0.0,meteohub,2013-12-15 00:06:00,
2013-12-14 19:11:00,68.7,66.9,29.87,SE,138,1.0,6.0,94,0.01,,,0.14,0.0,meteohub,2013-12-15 00:11:00,
2013-12-14 19:17:00,68.7,66.9,29.87,SW,229,0.0,6.0,94,0.01,,,0.14,0.0,meteohub,2013-12-15 00:17:00,
2013-12-14 19:22:00,68.5,66.7,29.87,South,190,3.0,6.0,94,0.02,,,0.15,0.0,meteohub,2013-12-15 00:22:00,
2013-12-14 19:27:00,68.5,66.7,29.87,South,175,0.0,5.0,94,0.02,,,0.15,0.0,meteohub,2013-12-15 00:27:00,
2013-12-14 19:32:00,68.5,66.7,29.87,SSE,164,0.0,5.0,94,0.03,,,0.16,0.0,meteohub,2013-12-15 00:32:00,
2013-12-14 19:37:00,68.4,66.6,29.87,SSE,164,0.0,5.0,94,0.04,,,0.17,0.0,meteohub,2013-12-15 00:37:00,
2013-12-14 19:42:00,68.2,66.7,29.87,South,182,0.0,3.0,95,0.04,,,0.17,0.0,meteohub,2013-12-15 00:42:00,
2013-12-14 19:47:00,68.2,66.7,29.87,SSE,156,3.0,3.0,95,0.04,,,0.17,0.0,meteohub,2013-12-15 00:47:00,
2013-12-14 19:52:00,68.0,66.6,29.87,SSE,163,0.0,5.0,95,0.04,,,0.17,0.0,meteohub,2013-12-15 00:52:00,
2013-12-14 19:57:00,68.0,66.6,29.88,South,172,0.0,5.0,95,0.04,,,0.17,0.0,meteohub,2013-12-15 00:57:00,
2013-12-14 20:02:00,67.8,66.4,29.87,SW,219,0.0,6.0,95,0.04,,,0.17,0.0,meteohub,2013-12-15 01:02:00,
2013-12-14 20:07:00,67.6,66.2,29.88,SSW,195,0.0,6.0,95,0.04,,,0.18,0.0,meteohub,2013-12-15 01:07:00,
2013-12-14 20:12:00,67.6,66.2,29.88,SE,134,5.0,6.0,95,0.05,,,0.19,0.0,meteohub,2013-12-15 01:12:00,
2013-12-14 20:16:00,67.5,66.0,29.88,WSW,248,0.0,7.0,95,0.07,,,0.21,0.0,meteohub,2013-12-15 01:16:00,
2013-12-14 20:22:00,67.3,65.8,29.89,South,182,2.0,7.0,95,0.08,,,0.23,0.0,meteohub,2013-12-15 01:22:00,
2013-12-14 20:27:00,67.1,65.7,29.89,WNW,290,0.0,7.0,95,0.09,,,0.24,0.0,meteohub,2013-12-15 01:27:00,
2013-12-14 20:32:00,67.3,65.8,29.88,WNW,290,0.0,6.0,95,0.11,,,0.27,0.0,meteohub,2013-12-15 01:32:00,
2013-12-14 20:37:00,67.1,65.7,29.88,WNW,290,0.0,6.0,95,0.11,,,0.28,0.0,meteohub,2013-12-15 01:37:00,
2013-12-14 20:42:00,67.1,65.8,29.87,WNW,290,0.0,1.0,96,0.12,,,0.29,0.0,meteohub,2013-12-15 01:42:00,
2013-12-14 20:46:00,66.7,65.3,29.87,WNW,290,0.0,2.0,95,0.14,,,0.31,0.0,meteohub,2013-12-15 01:46:00,
2013-12-14 20:51:00,66.7,65.3,29.86,WNW,290,0.0,2.0,95,0.16,,,0.33,0.0,meteohub,2013-12-15 01:51:00,
2013-12-14 20:56:00,66.6,65.1,29.86,WNW,290,0.0,2.0,95,0.24,,,0.41,0.0,meteohub,2013-12-15 01:56:00,
2013-12-14 21:02:00,66.4,64.9,29.86,WNW,290,0.0,1.0,95,0.26,,,0.44,0.0,meteohub,2013-12-15 02:02:00,
2013-12-14 21:07:00,66.0,64.6,29.86,WNW,290,0.0,3.0,95,0.33,,,0.52,0.0,meteohub,2013-12-15 02:07:00,
2013-12-14 21:12:00,65.8,64.4,29.86,WNW,290,0.0,4.0,95,0.44,,,0.64,0.0,meteohub,2013-12-15 02:12:00,
2013-12-14 21:17:00,65.8,64.6,29.86,WNW,290,0.0,4.0,96,0.45,,,0.66,0.0,meteohub,2013-12-15 02:17:00,
2013-12-14 21:22:00,65.7,64.4,29.86,West,268,0.0,4.0,96,0.46,,,0.69,0.0,meteohub,2013-12-15 02:22:00,
2013-12-14 21:27:00,65.7,64.4,29.85,WNW,300,0.0,5.0,96,0.58,,,0.83,0.0,meteohub,2013-12-15 02:27:00,
2013-12-14 21:32:00,65.7,64.4,29.85,WNW,290,1.0,5.0,96,0.67,,,0.94,0.0,meteohub,2013-12-15 02:32:00,
2013-12-14 21:37:00,65.7,64.4,29.84,West,281,0.0,5.0,96,0.77,,,1.05,0.0,meteohub,2013-12-15 02:37:00,
2013-12-14 21:42:00,65.7,64.4,29.85,WNW,286,2.0,5.0,96,0.84,,,1.11,0.0,meteohub,2013-12-15 02:42:00,
2013-12-14 21:47:00,65.8,64.9,29.85,WSW,242,3.0,6.0,97,0.92,,,1.23,0.0,meteohub,2013-12-15 02:47:00,
2013-12-14 21:52:00,66.2,65.3,29.85,SW,227,0.0,6.0,97,0.97,,,1.32,0.0,meteohub,2013-12-15 02:52:00,
2013-12-14 21:56:00,66.4,65.5,29.86,SSW,207,0.0,6.0,97,0.90,,,1.32,0.0,meteohub,2013-12-15 02:56:00,
2013-12-14 22:01:00,66.4,65.5,29.86,SSW,192,2.0,4.0,97,0.90,,,1.35,0.0,meteohub,2013-12-15 03:01:00,
2013-12-14 22:06:00,66.4,65.5,29.85,WSW,244,0.0,4.0,97,0.89,,,1.49,0.0,meteohub,2013-12-15 03:06:00,
2013-12-14 22:12:00,66.6,65.7,29.85,SSE,163,0.0,4.0,97,0.91,,,1.55,0.0,meteohub,2013-12-15 03:12:00,
2013-12-14 22:17:00,66.6,65.7,29.85,SSE,165,3.0,7.0,97,0.90,,,1.57,0.0,meteohub,2013-12-15 03:17:00,
2013-12-14 22:22:00,66.7,65.8,29.84,SSE,153,0.0,7.0,97,0.85,,,1.57,0.0,meteohub,2013-12-15 03:22:00,
2013-12-14 22:27:00,66.7,65.8,29.84,SSE,160,3.0,5.0,97,0.72,,,1.57,0.0,meteohub,2013-12-15 03:27:00,
2013-12-14 22:32:00,66.7,65.8,29.84,SSW,200,0.0,5.0,97,0.60,,,1.57,0.0,meteohub,2013-12-15 03:32:00,
2013-12-14 22:37:00,66.7,65.8,29.84,SSE,157,4.0,4.0,97,0.50,,,1.57,0.0,meteohub,2013-12-15 03:37:00,
2013-12-14 22:42:00,66.7,65.8,29.84,SSE,157,0.0,7.0,97,0.42,,,1.57,0.0,meteohub,2013-12-15 03:42:00,
2013-12-14 22:47:00,66.9,66.0,29.84,SW,222,2.0,7.0,97,0.26,,,1.57,0.0,meteohub,2013-12-15 03:47:00,
2013-12-14 22:52:00,66.9,66.0,29.85,SW,222,0.0,4.0,97,0.25,,,1.57,0.0,meteohub,2013-12-15 03:52:00,
2013-12-14 22:57:00,66.9,66.0,29.84,SW,221,0.0,4.0,97,0.25,,,1.57,0.0,meteohub,2013-12-15 03:57:00,
2013-12-14 23:02:00,66.9,66.0,29.84,SE,144,0.0,4.0,97,0.18,,,1.57,0.0,meteohub,2013-12-15 04:02:00,
2013-12-14 23:07:00,67.1,66.2,29.84,South,188,0.0,3.0,97,0.06,,,1.57,0.0,meteohub,2013-12-15 04:07:00,
2013-12-14 23:12:00,67.1,66.2,29.85,South,190,0.0,4.0,97,0.00,,,1.57,0.0,meteohub,2013-12-15 04:12:00,
2013-12-14 23:17:00,67.3,66.4,29.85,SSE,161,0.0,4.0,97,0.00,,,1.57,0.0,meteohub,2013-12-15 04:17:00,
2013-12-14 23:22:00,67.3,66.4,29.85,SSE,162,0.0,4.0,97,0.00,,,1.57,0.0,meteohub,2013-12-15 04:22:00,
2013-12-14 23:27:00,67.3,66.4,29.85,SSE,167,0.0,4.0,97,0.00,,,1.57,0.0,meteohub,2013-12-15 04:27:00,
2013-12-14 23:32:00,67.3,66.4,29.85,SSE,168,0.0,3.0,97,0.00,,,1.57,0.0,meteohub,2013-12-15 04:32:00,
2013-12-14 23:37:00,67.3,66.4,29.84,SW,225,0.0,5.0,97,0.00,,,1.57,0.0,meteohub,2013-12-15 04:37:00,
2013-12-14 23:42:00,67.3,66.4,29.84,SSW,213,0.0,5.0,97,0.00,,,1.57,0.0,meteohub,2013-12-15 04:42:00,
2013-12-14 23:47:00,67.3,66.4,29.84,SSW,213,0.0,5.0,97,0.00,,,1.57,0.0,meteohub,2013-12-15 04:47:00,
2013-12-14 23:52:00,67.5,66.6,29.84,SSW,213,0.0,3.0,97,0.00,,,1.57,0.0,meteohub,2013-12-15 04:52:00,
2013-12-14 23:57:00,67.5,66.6,29.84,South,181,0.0,4.0,97,0.00,,,1.57,0.0,meteohub,2013-12-15 04:57:00,